LRBS/BBU METAR and TAF weather

Enter ICAO airport designator
Station Type Date Time Source
LRBS METAR 2020/12/01 22:00 UTC NOAA

LRBS 012200Z 26003KT 3500 BR OVC005 M01/M01 Q1025 R07/19//95 TEMPO 1500 BR


Station Type Date Time Source
LRBS Decoded METAR 2020/12/01 22:00 UTC NOAA

Bucuresti / Imh, Romania (LRBS) 44-30N 026-08E 91M
Dec 01, 2020 - 05:00 PM EST / 2020.12.01 2200 UTC
Wind: from the W (260 degrees) at 3 MPH (3 KT):0
Visibility: 2 mile(s):0
Sky conditions: overcast
Weather: mist
Temperature: 30 F (-1 C)
Dew Point: 30 F (-1 C)
Relative Humidity: 100%
Pressure (altimeter): 30.27 in. Hg (1025 hPa)
ob: LRBS 012200Z 26003KT 3500 BR OVC005 M01/M01 Q1025 R07/19//95 TEMPO 1500 BR
cycle: 22

Station Type Date Time Source
LRBS TAF 2020/12/01 20:13 UTC NOAA

TAF
AMD LRBS 012006Z 0120/0218 VRB04KT 1500 BR OVC002
TEMPO 0120/0200 0600 FZFG OVC001
BECMG 0200/0202 0350 FZFG VV001
BECMG 0206/0208 0800 FZFG OVC005
BECMG 0208/0210 1500 BR BKN010
TEMPO 0211/0215 5000 SCT010
BECMG 0216/0218 0600 FZFG VV001

Example: see airport list